[x] [x]
.:Aeroklub Partizánske:. |  .:Fotogaléria:. |  .:Videogaléria:. |  .:Foto týždňa:. |  .:Kniha návštev:. |  .:Linky:. |  .:Moje konto:.
 MENU [x]

 METEO [x]

 FotoGaléria [x]

 Slnko [x]
LZPT Partizánske
48°37'N 18°20'E
Východ: 6:31 AM
Západ: 5:28 PM
LZIB Bratislava
48°10'N 17°12'E
Východ: 6:35 AM
Západ: 5:33 PM
LZKZ Košice
48°39'N 21°14'E
Východ: 6:20 AM
Západ: 5:17 PM

 Jazyky [x]
Vyberte jazyk rozhrania:

Slovak English German Polish


  SPRÁVY METAR - ČESKÁ REPUBLIKA
Brno-TuřanyLKTB 010245Z 04002KT 5000 BR BKN009 OVC014 00/M01 Q1015 RMK REG QNH 1010dekóduj
ČáslavLKCV 010200Z 16005KT CAVOK M01/M02 Q1015 NOSIG RMK BLU BLUdekóduj
HolešovLKHO 010800Z VRB03KT CAVOK 23/17 Q1019dekóduj
Hradec Královedekóduj
Karlovy VaryLKKV 010200Z 21003KT 9999 BKN011 M01/M02 Q1012 R29///////dekóduj
KunoviceLKKU 281200Z 00000KT 9000 SCT015 BKN020 06/03 Q1019dekóduj
LiberecLKLB 020602Z 16003KT 9999 FEW016 BKN043 M01/M02 Q1016dekóduj
Mariánsky Láznědekóduj
Náměšť nad OslavouLKNA 010200Z 00000KT 7000 NSC M01/M02 Q1014 RMK WHTdekóduj
Ostrava-MošnovLKMT 010230Z 16002KT 0600 R22/0450 R04/0250 FG SCT008 01/M00 Q1016 NOSIGdekóduj
PardubiceLKPD 010200Z VRB02KT 7000 NSC M03/M03 Q1015 RMK BLUdekóduj
Praha-KbelyLKKB 010200Z 19003KT 8000 NSC 00/M01 Q1014dekóduj
Praha-RuzyněLKPR 010230Z 18006KT 9999 FEW040 M02/M03 Q1014 NOSIGdekóduj
PřerovLKPO 010000Z 05005KT CAVOK 04/01 Q1013dekóduj
 FreeFly INFO [x]
COROWA 2009


COROWA 2009


COROWA 2009



 LZPT webcam [x]

 Foto týždňa [x]

 KBO SNA [x]

 Login [x]
Užívateľské meno

Heslo


Ešte nemáš konto? Môžeš si ho vytvoriť. Registrovaný užívateľ má množstvo výhod, napr. posielanie okamžitých správ iným užívateľom, posielanie komentárov s vlastným menom, možnosť pridávať fotografie do galérie...

 Kto je online [x]
Momentálne je online 39 hostí a 0 členov.

Ste anonymný užívateľ. Zaregistrovať sa môžete tu

DETAILY

 Linky [x]

 Počítadlo návštev [x]
Zaznamenali sme
33903406
strán zobrazených od júna 2003

Počet dnešných unikátnych IP adries:
0



www.freefly.sk
Powered by SzMsoft ©2003-2005. Polish translations by Cezary Dąbek. Flying server www.freefly.sk is administrated by maro@freefly.sk - www.artweb.freefly.sk
PHP-Nuke Copyright © 2004 by Francisco Burzi. This is free software, and you may redistribute it under the GPL. PHP-Nuke comes with absolutely no warranty, for details, see the license.